sensor_id;sensor_type;location;lat;lon;timestamp;P1;durP1;ratioP1;P2;durP2;ratioP2
19396;SDS011;9834;48.076;11.878;2022-11-14T00:00:10;7.47;;;5.23;;
19396;SDS011;9834;48.076;11.878;2022-11-14T00:02:40;6.30;;;5.23;;
19396;SDS011;9834;48.076;11.878;2022-11-14T00:05:07;6.87;;;5.40;;
19396;SDS011;9834;48.076;11.878;2022-11-14T00:07:34;8.47;;;5.70;;
19396;SDS011;9834;48.076;11.878;2022-11-14T00:10:01;9.03;;;5.70;;
19396;SDS011;9834;48.076;11.878;2022-11-14T00:12:29;8.13;;;5.67;;
19396;SDS011;9834;48.076;11.878;2022-11-14T00:14:56;6.43;;;5.70;;
19396;SDS011;9834;48.076;11.878;2022-11-14T00:17:23;9.17;;;5.77;;
19396;SDS011;9834;48.076;11.878;2022-11-14T00:19:51;6.97;;;4.80;;
19396;SDS011;9834;48.076;11.878;2022-11-14T00:22:18;9.07;;;4.90;;
19396;SDS011;9834;48.076;11.878;2022-11-14T00:24:45;6.53;;;4.63;;
19396;SDS011;9834;48.076;11.878;2022-11-14T00:27:12;5.10;;;4.37;;
19396;SDS011;9834;48.076;11.878;2022-11-14T00:29:39;6.97;;;5.17;;
19396;SDS011;9834;48.076;11.878;2022-11-14T00:32:06;8.70;;;5.77;;
19396;SDS011;9834;48.076;11.878;2022-11-14T00:34:33;7.53;;;5.47;;
19396;SDS011;9834;48.076;11.878;2022-11-14T00:37:02;7.27;;;4.97;;
19396;SDS011;9834;48.076;11.878;2022-11-14T00:39:29;8.57;;;5.53;;
19396;SDS011;9834;48.076;11.878;2022-11-14T00:41:56;7.07;;;5.10;;
19396;SDS011;9834;48.076;11.878;2022-11-14T00:44:23;8.23;;;5.03;;
19396;SDS011;9834;48.076;11.878;2022-11-14T00:46:50;5.13;;;4.40;;
19396;SDS011;9834;48.076;11.878;2022-11-14T00:49:17;5.77;;;4.63;;
19396;SDS011;9834;48.076;11.878;2022-11-14T00:51:43;6.23;;;5.03;;
19396;SDS011;9834;48.076;11.878;2022-11-14T00:54:12;4.37;;;3.77;;
19396;SDS011;9834;48.076;11.878;2022-11-14T00:56:38;5.97;;;4.67;;
19396;SDS011;9834;48.076;11.878;2022-11-14T00:59:05;6.90;;;5.10;;
19396;SDS011;9834;48.076;11.878;2022-11-14T01:01:32;7.53;;;4.93;;
19396;SDS011;9834;48.076;11.878;2022-11-14T01:03:59;5.67;;;4.63;;
19396;SDS011;9834;48.076;11.878;2022-11-14T01:06:26;7.33;;;5.20;;
19396;SDS011;9834;48.076;11.878;2022-11-14T01:08:53;6.77;;;4.93;;
19396;SDS011;9834;48.076;11.878;2022-11-14T01:11:22;7.20;;;5.37;;
19396;SDS011;9834;48.076;11.878;2022-11-14T01:13:49;7.47;;;4.57;;
19396;SDS011;9834;48.076;11.878;2022-11-14T01:16:16;6.00;;;5.23;;
19396;SDS011;9834;48.076;11.878;2022-11-14T01:18:44;7.10;;;5.03;;
19396;SDS011;9834;48.076;11.878;2022-11-14T01:21:11;5.13;;;4.63;;
19396;SDS011;9834;48.076;11.878;2022-11-14T01:23:39;5.63;;;4.40;;
19396;SDS011;9834;48.076;11.878;2022-11-14T01:26:08;5.47;;;4.33;;
19396;SDS011;9834;48.076;11.878;2022-11-14T01:28:37;6.73;;;3.80;;
19396;SDS011;9834;48.076;11.878;2022-11-14T01:31:09;4.60;;;4.10;;
19396;SDS011;9834;48.076;11.878;2022-11-14T01:33:36;6.60;;;4.33;;
19396;SDS011;9834;48.076;11.878;2022-11-14T01:36:03;7.07;;;5.47;;
19396;SDS011;9834;48.076;11.878;2022-11-14T01:38:31;7.10;;;4.47;;
19396;SDS011;9834;48.076;11.878;2022-11-14T01:40:58;7.43;;;4.50;;
19396;SDS011;9834;48.076;11.878;2022-11-14T01:43:29;6.53;;;4.70;;
19396;SDS011;9834;48.076;11.878;2022-11-14T01:46:00;4.77;;;4.13;;
19396;SDS011;9834;48.076;11.878;2022-11-14T01:48:35;5.23;;;3.90;;
19396;SDS011;9834;48.076;11.878;2022-11-14T01:51:10;5.47;;;4.50;;
19396;SDS011;9834;48.076;11.878;2022-11-14T01:53:42;4.60;;;4.20;;
19396;SDS011;9834;48.076;11.878;2022-11-14T01:56:11;4.90;;;4.00;;
19396;SDS011;9834;48.076;11.878;2022-11-14T01:58:41;7.80;;;4.13;;
19396;SDS011;9834;48.076;11.878;2022-11-14T02:01:13;5.53;;;4.60;;
19396;SDS011;9834;48.076;11.878;2022-11-14T02:03:40;5.37;;;4.63;;
19396;SDS011;9834;48.076;11.878;2022-11-14T02:06:10;7.63;;;4.87;;
19396;SDS011;9834;48.076;11.878;2022-11-14T02:08:40;6.60;;;4.27;;
19396;SDS011;9834;48.076;11.878;2022-11-14T02:11:08;3.93;;;3.53;;
19396;SDS011;9834;48.076;11.878;2022-11-14T02:13:36;5.10;;;4.60;;
19396;SDS011;9834;48.076;11.878;2022-11-14T02:16:03;4.50;;;3.80;;
19396;SDS011;9834;48.076;11.878;2022-11-14T02:18:32;4.07;;;3.67;;
19396;SDS011;9834;48.076;11.878;2022-11-14T02:21:00;7.10;;;4.27;;
19396;SDS011;9834;48.076;11.878;2022-11-14T02:23:27;5.50;;;3.90;;
19396;SDS011;9834;48.076;11.878;2022-11-14T02:25:56;5.37;;;4.80;;
19396;SDS011;9834;48.076;11.878;2022-11-14T02:28:23;5.03;;;4.53;;
19396;SDS011;9834;48.076;11.878;2022-11-14T02:30:50;4.97;;;4.47;;
19396;SDS011;9834;48.076;11.878;2022-11-14T02:33:17;6.80;;;5.43;;
19396;SDS011;9834;48.076;11.878;2022-11-14T02:35:44;6.30;;;4.87;;
19396;SDS011;9834;48.076;11.878;2022-11-14T02:38:12;4.77;;;4.00;;
19396;SDS011;9834;48.076;11.878;2022-11-14T02:40:39;6.00;;;4.67;;
19396;SDS011;9834;48.076;11.878;2022-11-14T02:43:06;5.70;;;4.03;;
19396;SDS011;9834;48.076;11.878;2022-11-14T02:45:33;4.53;;;3.60;;
19396;SDS011;9834;48.076;11.878;2022-11-14T02:48:00;6.60;;;3.67;;
19396;SDS011;9834;48.076;11.878;2022-11-14T02:50:27;4.47;;;3.80;;
19396;SDS011;9834;48.076;11.878;2022-11-14T02:52:54;5.77;;;3.80;;
19396;SDS011;9834;48.076;11.878;2022-11-14T02:55:22;5.17;;;3.67;;
19396;SDS011;9834;48.076;11.878;2022-11-14T02:57:49;3.77;;;3.07;;
19396;SDS011;9834;48.076;11.878;2022-11-14T03:00:17;3.87;;;3.50;;
19396;SDS011;9834;48.076;11.878;2022-11-14T03:02:44;4.93;;;3.90;;
19396;SDS011;9834;48.076;11.878;2022-11-14T03:05:11;6.67;;;3.03;;
19396;SDS011;9834;48.076;11.878;2022-11-14T03:07:38;2.67;;;2.47;;
19396;SDS011;9834;48.076;11.878;2022-11-14T03:10:05;3.40;;;3.07;;
19396;SDS011;9834;48.076;11.878;2022-11-14T03:12:35;3.53;;;3.17;;
19396;SDS011;9834;48.076;11.878;2022-11-14T03:15:02;4.10;;;3.70;;
19396;SDS011;9834;48.076;11.878;2022-11-14T03:17:30;3.90;;;3.40;;
19396;SDS011;9834;48.076;11.878;2022-11-14T03:19:58;5.63;;;3.80;;
19396;SDS011;9834;48.076;11.878;2022-11-14T03:22:25;4.37;;;3.43;;
19396;SDS011;9834;48.076;11.878;2022-11-14T03:24:52;3.73;;;3.37;;
19396;SDS011;9834;48.076;11.878;2022-11-14T03:27:19;4.43;;;3.47;;
19396;SDS011;9834;48.076;11.878;2022-11-14T03:29:47;5.43;;;3.80;;
19396;SDS011;9834;48.076;11.878;2022-11-14T03:32:14;7.63;;;4.17;;
19396;SDS011;9834;48.076;11.878;2022-11-14T03:34:41;5.23;;;4.33;;
19396;SDS011;9834;48.076;11.878;2022-11-14T03:37:08;5.53;;;3.57;;
19396;SDS011;9834;48.076;11.878;2022-11-14T03:39:35;4.97;;;3.73;;
19396;SDS011;9834;48.076;11.878;2022-11-14T03:42:02;6.00;;;4.30;;
19396;SDS011;9834;48.076;11.878;2022-11-14T03:44:29;5.40;;;4.00;;
19396;SDS011;9834;48.076;11.878;2022-11-14T03:46:57;5.73;;;4.43;;
19396;SDS011;9834;48.076;11.878;2022-11-14T03:49:24;5.10;;;3.97;;
19396;SDS011;9834;48.076;11.878;2022-11-14T03:51:51;6.77;;;4.43;;
19396;SDS011;9834;48.076;11.878;2022-11-14T03:54:18;7.70;;;4.10;;
19396;SDS011;9834;48.076;11.878;2022-11-14T03:56:45;4.10;;;3.70;;
19396;SDS011;9834;48.076;11.878;2022-11-14T03:59:12;4.67;;;3.20;;
19396;SDS011;9834;48.076;11.878;2022-11-14T04:01:39;4.53;;;3.77;;
19396;SDS011;9834;48.076;11.878;2022-11-14T04:04:07;7.30;;;4.40;;
19396;SDS011;9834;48.076;11.878;2022-11-14T04:06:36;4.33;;;3.90;;
19396;SDS011;9834;48.076;11.878;2022-11-14T04:09:03;4.23;;;3.67;;
19396;SDS011;9834;48.076;11.878;2022-11-14T04:11:30;7.20;;;4.00;;
19396;SDS011;9834;48.076;11.878;2022-11-14T04:13:57;4.17;;;3.77;;
19396;SDS011;9834;48.076;11.878;2022-11-14T04:16:24;4.07;;;3.67;;
19396;SDS011;9834;48.076;11.878;2022-11-14T04:18:51;3.63;;;3.27;;
19396;SDS011;9834;48.076;11.878;2022-11-14T04:21:19;4.87;;;3.77;;
19396;SDS011;9834;48.076;11.878;2022-11-14T04:23:46;7.07;;;3.70;;
19396;SDS011;9834;48.076;11.878;2022-11-14T04:26:13;4.60;;;3.70;;
19396;SDS011;9834;48.076;11.878;2022-11-14T04:28:40;4.73;;;3.87;;
19396;SDS011;9834;48.076;11.878;2022-11-14T04:31:07;3.77;;;3.20;;
19396;SDS011;9834;48.076;11.878;2022-11-14T04:33:33;4.33;;;3.83;;
19396;SDS011;9834;48.076;11.878;2022-11-14T04:36:00;5.30;;;3.33;;
19396;SDS011;9834;48.076;11.878;2022-11-14T04:38:29;6.00;;;4.00;;
19396;SDS011;9834;48.076;11.878;2022-11-14T04:40:56;2.97;;;2.73;;
19396;SDS011;9834;48.076;11.878;2022-11-14T04:43:23;3.43;;;3.10;;
19396;SDS011;9834;48.076;11.878;2022-11-14T04:45:50;4.77;;;3.70;;
19396;SDS011;9834;48.076;11.878;2022-11-14T04:48:17;5.03;;;3.87;;
19396;SDS011;9834;48.076;11.878;2022-11-14T04:50:44;4.27;;;3.80;;
19396;SDS011;9834;48.076;11.878;2022-11-14T04:53:11;5.87;;;4.87;;
19396;SDS011;9834;48.076;11.878;2022-11-14T04:55:39;5.50;;;4.20;;
19396;SDS011;9834;48.076;11.878;2022-11-14T04:58:06;6.07;;;4.20;;
19396;SDS011;9834;48.076;11.878;2022-11-14T05:00:34;4.50;;;3.47;;
19396;SDS011;9834;48.076;11.878;2022-11-14T05:03:01;4.33;;;3.87;;
19396;SDS011;9834;48.076;11.878;2022-11-14T05:05:27;4.37;;;3.50;;
19396;SDS011;9834;48.076;11.878;2022-11-14T05:07:54;4.90;;;4.40;;
19396;SDS011;9834;48.076;11.878;2022-11-14T05:10:21;5.63;;;4.23;;
19396;SDS011;9834;48.076;11.878;2022-11-14T05:12:52;4.10;;;3.50;;
19396;SDS011;9834;48.076;11.878;2022-11-14T05:15:20;3.97;;;3.03;;
19396;SDS011;9834;48.076;11.878;2022-11-14T05:17:49;5.27;;;3.70;;
19396;SDS011;9834;48.076;11.878;2022-11-14T05:20:17;3.97;;;3.57;;
19396;SDS011;9834;48.076;11.878;2022-11-14T05:22:57;3.83;;;3.43;;
19396;SDS011;9834;48.076;11.878;2022-11-14T05:25:25;4.53;;;3.33;;
19396;SDS011;9834;48.076;11.878;2022-11-14T05:27:54;4.67;;;3.70;;
19396;SDS011;9834;48.076;11.878;2022-11-14T05:30:27;3.60;;;3.30;;
19396;SDS011;9834;48.076;11.878;2022-11-14T05:32:55;4.00;;;3.53;;
19396;SDS011;9834;48.076;11.878;2022-11-14T05:35:22;3.67;;;3.37;;
19396;SDS011;9834;48.076;11.878;2022-11-14T05:37:59;5.20;;;3.83;;
19396;SDS011;9834;48.076;11.878;2022-11-14T05:40:26;3.13;;;2.77;;
19396;SDS011;9834;48.076;11.878;2022-11-14T05:42:55;4.83;;;3.70;;
19396;SDS011;9834;48.076;11.878;2022-11-14T05:45:22;3.40;;;2.90;;
19396;SDS011;9834;48.076;11.878;2022-11-14T05:47:50;3.67;;;3.37;;
19396;SDS011;9834;48.076;11.878;2022-11-14T05:50:18;3.63;;;3.30;;
19396;SDS011;9834;48.076;11.878;2022-11-14T05:52:45;3.23;;;2.47;;
19396;SDS011;9834;48.076;11.878;2022-11-14T05:55:12;4.33;;;3.40;;
19396;SDS011;9834;48.076;11.878;2022-11-14T05:57:39;4.60;;;2.73;;
19396;SDS011;9834;48.076;11.878;2022-11-14T06:00:09;4.07;;;3.13;;
19396;SDS011;9834;48.076;11.878;2022-11-14T06:02:37;3.33;;;3.03;;
19396;SDS011;9834;48.076;11.878;2022-11-14T06:05:04;18.93;;;8.87;;
19396;SDS011;9834;48.076;11.878;2022-11-14T06:07:31;49.73;;;26.40;;
19396;SDS011;9834;48.076;11.878;2022-11-14T06:09:58;22.53;;;13.90;;
19396;SDS011;9834;48.076;11.878;2022-11-14T06:12:25;14.07;;;7.53;;
19396;SDS011;9834;48.076;11.878;2022-11-14T06:14:52;9.10;;;6.83;;
19396;SDS011;9834;48.076;11.878;2022-11-14T06:17:20;9.67;;;6.47;;
19396;SDS011;9834;48.076;11.878;2022-11-14T06:19:47;9.23;;;5.60;;
19396;SDS011;9834;48.076;11.878;2022-11-14T06:22:14;6.57;;;5.83;;
19396;SDS011;9834;48.076;11.878;2022-11-14T06:24:41;6.60;;;5.90;;
19396;SDS011;9834;48.076;11.878;2022-11-14T06:27:08;7.87;;;5.93;;
19396;SDS011;9834;48.076;11.878;2022-11-14T06:29:34;7.13;;;4.87;;
19396;SDS011;9834;48.076;11.878;2022-11-14T06:32:01;8.73;;;5.67;;
19396;SDS011;9834;48.076;11.878;2022-11-14T06:34:30;8.43;;;6.23;;
19396;SDS011;9834;48.076;11.878;2022-11-14T06:36:57;11.23;;;7.30;;
19396;SDS011;9834;48.076;11.878;2022-11-14T06:39:24;6.77;;;6.07;;
19396;SDS011;9834;48.076;11.878;2022-11-14T06:41:50;7.13;;;5.30;;
19396;SDS011;9834;48.076;11.878;2022-11-14T06:44:17;7.57;;;5.43;;
19396;SDS011;9834;48.076;11.878;2022-11-14T06:46:44;6.27;;;5.60;;
19396;SDS011;9834;48.076;11.878;2022-11-14T06:49:11;12.67;;;7.37;;
19396;SDS011;9834;48.076;11.878;2022-11-14T06:51:39;8.90;;;6.77;;
19396;SDS011;9834;48.076;11.878;2022-11-14T07:00:25;6.33;;;5.10;;
19396;SDS011;9834;48.076;11.878;2022-11-14T07:02:52;5.63;;;4.57;;
19396;SDS011;9834;48.076;11.878;2022-11-14T07:05:26;7.57;;;5.40;;
19396;SDS011;9834;48.076;11.878;2022-11-14T07:08:09;7.47;;;5.37;;
19396;SDS011;9834;48.076;11.878;2022-11-14T07:10:36;11.83;;;7.33;;
19396;SDS011;9834;48.076;11.878;2022-11-14T07:13:06;7.47;;;6.70;;
19396;SDS011;9834;48.076;11.878;2022-11-14T07:15:35;6.07;;;5.17;;
19396;SDS011;9834;48.076;11.878;2022-11-14T07:18:02;6.93;;;5.40;;
19396;SDS011;9834;48.076;11.878;2022-11-14T07:20:30;6.83;;;5.33;;
19396;SDS011;9834;48.076;11.878;2022-11-14T07:22:57;7.70;;;6.77;;
19396;SDS011;9834;48.076;11.878;2022-11-14T07:25:25;8.83;;;6.13;;
19396;SDS011;9834;48.076;11.878;2022-11-14T07:27:52;7.60;;;6.07;;
19396;SDS011;9834;48.076;11.878;2022-11-14T07:30:19;6.50;;;5.67;;
19396;SDS011;9834;48.076;11.878;2022-11-14T07:32:46;8.53;;;6.13;;
19396;SDS011;9834;48.076;11.878;2022-11-14T07:35:19;6.77;;;5.47;;
19396;SDS011;9834;48.076;11.878;2022-11-14T07:37:46;7.50;;;5.53;;
19396;SDS011;9834;48.076;11.878;2022-11-14T07:40:13;7.70;;;5.47;;
19396;SDS011;9834;48.076;11.878;2022-11-14T07:42:42;10.10;;;6.93;;
19396;SDS011;9834;48.076;11.878;2022-11-14T07:45:09;9.47;;;6.33;;
19396;SDS011;9834;48.076;11.878;2022-11-14T07:47:36;8.33;;;6.50;;
19396;SDS011;9834;48.076;11.878;2022-11-14T07:50:03;7.50;;;5.73;;
19396;SDS011;9834;48.076;11.878;2022-11-14T07:52:30;5.97;;;5.37;;
19396;SDS011;9834;48.076;11.878;2022-11-14T07:54:57;6.37;;;5.47;;
19396;SDS011;9834;48.076;11.878;2022-11-14T07:57:24;7.63;;;6.37;;
19396;SDS011;9834;48.076;11.878;2022-11-14T07:59:52;6.13;;;5.53;;
19396;SDS011;9834;48.076;11.878;2022-11-14T08:02:19;6.67;;;5.37;;
19396;SDS011;9834;48.076;11.878;2022-11-14T08:04:46;11.40;;;5.67;;
19396;SDS011;9834;48.076;11.878;2022-11-14T08:07:13;8.03;;;5.47;;
19396;SDS011;9834;48.076;11.878;2022-11-14T08:09:40;6.33;;;4.73;;
19396;SDS011;9834;48.076;11.878;2022-11-14T08:12:07;8.43;;;5.50;;
19396;SDS011;9834;48.076;11.878;2022-11-14T08:14:34;5.17;;;4.67;;
19396;SDS011;9834;48.076;11.878;2022-11-14T08:17:02;6.10;;;5.23;;
19396;SDS011;9834;48.076;11.878;2022-11-14T08:19:29;6.77;;;4.77;;
19396;SDS011;9834;48.076;11.878;2022-11-14T08:21:56;6.50;;;5.07;;
19396;SDS011;9834;48.076;11.878;2022-11-14T08:24:23;6.07;;;5.00;;
19396;SDS011;9834;48.076;11.878;2022-11-14T08:26:49;6.90;;;4.90;;
19396;SDS011;9834;48.076;11.878;2022-11-14T08:29:16;6.63;;;4.80;;
19396;SDS011;9834;48.076;11.878;2022-11-14T08:31:44;5.37;;;4.40;;
19396;SDS011;9834;48.076;11.878;2022-11-14T08:34:12;10.00;;;5.33;;
19396;SDS011;9834;48.076;11.878;2022-11-14T08:36:39;6.03;;;5.43;;
19396;SDS011;9834;48.076;11.878;2022-11-14T08:39:06;8.00;;;6.47;;
19396;SDS011;9834;48.076;11.878;2022-11-14T08:41:33;6.00;;;5.03;;
19396;SDS011;9834;48.076;11.878;2022-11-14T08:44:00;6.80;;;4.83;;
19396;SDS011;9834;48.076;11.878;2022-11-14T08:46:27;8.50;;;5.20;;
19396;SDS011;9834;48.076;11.878;2022-11-14T08:48:54;9.30;;;4.87;;
19396;SDS011;9834;48.076;11.878;2022-11-14T08:51:22;5.47;;;4.77;;
19396;SDS011;9834;48.076;11.878;2022-11-14T08:53:49;8.03;;;5.97;;
19396;SDS011;9834;48.076;11.878;2022-11-14T08:56:16;5.47;;;4.43;;
19396;SDS011;9834;48.076;11.878;2022-11-14T08:58:43;6.97;;;5.13;;
19396;SDS011;9834;48.076;11.878;2022-11-14T09:01:10;11.87;;;6.47;;
19396;SDS011;9834;48.076;11.878;2022-11-14T09:03:37;8.60;;;5.87;;
19396;SDS011;9834;48.076;11.878;2022-11-14T09:06:04;7.43;;;5.90;;
19396;SDS011;9834;48.076;11.878;2022-11-14T09:08:32;5.73;;;4.87;;
19396;SDS011;9834;48.076;11.878;2022-11-14T09:10:59;7.63;;;6.00;;
19396;SDS011;9834;48.076;11.878;2022-11-14T09:13:27;7.70;;;6.73;;
19396;SDS011;9834;48.076;11.878;2022-11-14T09:15:53;9.70;;;6.20;;
19396;SDS011;9834;48.076;11.878;2022-11-14T09:18:20;8.20;;;6.77;;
19396;SDS011;9834;48.076;11.878;2022-11-14T09:20:47;9.43;;;6.60;;
19396;SDS011;9834;48.076;11.878;2022-11-14T09:23:14;6.90;;;5.90;;
19396;SDS011;9834;48.076;11.878;2022-11-14T09:25:42;9.40;;;6.23;;
19396;SDS011;9834;48.076;11.878;2022-11-14T09:28:09;6.57;;;5.53;;
19396;SDS011;9834;48.076;11.878;2022-11-14T09:30:36;6.70;;;4.83;;
19396;SDS011;9834;48.076;11.878;2022-11-14T09:33:05;8.13;;;6.20;;
19396;SDS011;9834;48.076;11.878;2022-11-14T09:35:32;7.33;;;5.60;;
19396;SDS011;9834;48.076;11.878;2022-11-14T09:38:00;6.33;;;5.40;;
19396;SDS011;9834;48.076;11.878;2022-11-14T09:40:28;5.77;;;4.60;;
19396;SDS011;9834;48.076;11.878;2022-11-14T09:43:12;5.77;;;4.70;;
19396;SDS011;9834;48.076;11.878;2022-11-14T09:45:49;6.03;;;4.87;;
19396;SDS011;9834;48.076;11.878;2022-11-14T09:48:18;4.10;;;3.77;;
19396;SDS011;9834;48.076;11.878;2022-11-14T09:50:50;4.27;;;3.60;;
19396;SDS011;9834;48.076;11.878;2022-11-14T09:53:29;3.83;;;3.43;;
19396;SDS011;9834;48.076;11.878;2022-11-14T09:55:58;5.57;;;3.53;;
19396;SDS011;9834;48.076;11.878;2022-11-14T09:58:26;4.30;;;2.93;;
19396;SDS011;9834;48.076;11.878;2022-11-14T10:00:55;2.70;;;2.50;;
19396;SDS011;9834;48.076;11.878;2022-11-14T10:03:28;3.17;;;2.87;;
19396;SDS011;9834;48.076;11.878;2022-11-14T10:06:08;5.03;;;3.23;;
19396;SDS011;9834;48.076;11.878;2022-11-14T10:11:48;3.97;;;3.27;;
19396;SDS011;9834;48.076;11.878;2022-11-14T10:14:25;3.67;;;2.40;;
19396;SDS011;9834;48.076;11.878;2022-11-14T10:17:08;4.40;;;2.87;;
19396;SDS011;9834;48.076;11.878;2022-11-14T10:19:49;2.97;;;2.53;;
19396;SDS011;9834;48.076;11.878;2022-11-14T10:22:26;3.80;;;2.77;;
19396;SDS011;9834;48.076;11.878;2022-11-14T10:25:15;3.53;;;2.30;;
19396;SDS011;9834;48.076;11.878;2022-11-14T10:27:52;4.00;;;2.37;;
19396;SDS011;9834;48.076;11.878;2022-11-14T10:30:34;2.87;;;2.60;;
19396;SDS011;9834;48.076;11.878;2022-11-14T10:33:12;2.10;;;1.97;;
19396;SDS011;9834;48.076;11.878;2022-11-14T10:35:51;3.03;;;2.57;;
19396;SDS011;9834;48.076;11.878;2022-11-14T10:38:25;3.23;;;2.53;;
19396;SDS011;9834;48.076;11.878;2022-11-14T10:40:58;1.87;;;1.67;;
19396;SDS011;9834;48.076;11.878;2022-11-14T10:43:29;4.13;;;2.40;;
19396;SDS011;9834;48.076;11.878;2022-11-14T10:46:02;4.03;;;2.23;;
19396;SDS011;9834;48.076;11.878;2022-11-14T10:48:33;2.30;;;1.60;;
19396;SDS011;9834;48.076;11.878;2022-11-14T10:51:05;3.70;;;3.17;;
19396;SDS011;9834;48.076;11.878;2022-11-14T10:53:41;3.70;;;2.80;;
19396;SDS011;9834;48.076;11.878;2022-11-14T10:56:14;3.57;;;2.57;;
19396;SDS011;9834;48.076;11.878;2022-11-14T10:58:41;1.87;;;1.77;;
19396;SDS011;9834;48.076;11.878;2022-11-14T11:04:10;1.90;;;1.50;;
19396;SDS011;9834;48.076;11.878;2022-11-14T11:06:39;1.50;;;1.40;;
19396;SDS011;9834;48.076;11.878;2022-11-14T11:09:07;2.47;;;1.80;;
19396;SDS011;9834;48.076;11.878;2022-11-14T11:11:56;2.77;;;2.43;;
19396;SDS011;9834;48.076;11.878;2022-11-14T11:14:26;2.40;;;1.60;;
19396;SDS011;9834;48.076;11.878;2022-11-14T11:17:12;1.57;;;1.40;;
19396;SDS011;9834;48.076;11.878;2022-11-14T11:19:49;2.27;;;1.83;;
19396;SDS011;9834;48.076;11.878;2022-11-14T11:22:23;1.57;;;1.43;;
19396;SDS011;9834;48.076;11.878;2022-11-14T11:24:55;1.73;;;1.63;;
19396;SDS011;9834;48.076;11.878;2022-11-14T11:27:22;3.93;;;2.30;;
19396;SDS011;9834;48.076;11.878;2022-11-14T11:30:00;1.73;;;1.63;;
19396;SDS011;9834;48.076;11.878;2022-11-14T11:32:44;2.23;;;2.03;;
19396;SDS011;9834;48.076;11.878;2022-11-14T11:35:11;2.73;;;2.07;;
19396;SDS011;9834;48.076;11.878;2022-11-14T11:37:41;7.00;;;2.47;;
19396;SDS011;9834;48.076;11.878;2022-11-14T11:40:13;2.07;;;1.87;;
19396;SDS011;9834;48.076;11.878;2022-11-14T11:42:44;2.20;;;2.00;;
19396;SDS011;9834;48.076;11.878;2022-11-14T11:45:15;2.07;;;1.83;;
19396;SDS011;9834;48.076;11.878;2022-11-14T11:47:45;2.53;;;1.90;;
19396;SDS011;9834;48.076;11.878;2022-11-14T11:50:19;2.77;;;2.00;;
19396;SDS011;9834;48.076;11.878;2022-11-14T11:52:49;2.97;;;2.10;;
19396;SDS011;9834;48.076;11.878;2022-11-14T11:55:28;3.03;;;2.07;;
19396;SDS011;9834;48.076;11.878;2022-11-14T11:58:00;3.10;;;2.10;;
19396;SDS011;9834;48.076;11.878;2022-11-14T12:00:31;1.80;;;1.70;;
19396;SDS011;9834;48.076;11.878;2022-11-14T12:02:59;2.00;;;1.90;;
19396;SDS011;9834;48.076;11.878;2022-11-14T12:05:30;1.60;;;1.47;;
19396;SDS011;9834;48.076;11.878;2022-11-14T12:08:04;2.10;;;1.90;;
19396;SDS011;9834;48.076;11.878;2022-11-14T12:10:36;3.57;;;2.87;;
19396;SDS011;9834;48.076;11.878;2022-11-14T12:15:57;2.30;;;1.70;;
19396;SDS011;9834;48.076;11.878;2022-11-14T12:21:45;4.10;;;2.10;;
19396;SDS011;9834;48.076;11.878;2022-11-14T12:24:44;2.63;;;2.20;;
19396;SDS011;9834;48.076;11.878;2022-11-14T12:27:24;4.37;;;2.50;;
19396;SDS011;9834;48.076;11.878;2022-11-14T12:30:06;2.00;;;1.90;;
19396;SDS011;9834;48.076;11.878;2022-11-14T12:32:38;6.77;;;2.70;;
19396;SDS011;9834;48.076;11.878;2022-11-14T12:35:14;3.40;;;2.87;;
19396;SDS011;9834;48.076;11.878;2022-11-14T12:37:45;4.10;;;2.47;;
19396;SDS011;9834;48.076;11.878;2022-11-14T12:40:25;3.03;;;2.70;;
19396;SDS011;9834;48.076;11.878;2022-11-14T12:42:54;2.93;;;2.63;;
19396;SDS011;9834;48.076;11.878;2022-11-14T12:48:31;2.40;;;2.17;;
19396;SDS011;9834;48.076;11.878;2022-11-14T12:51:02;3.17;;;2.80;;
19396;SDS011;9834;48.076;11.878;2022-11-14T12:53:42;3.53;;;3.23;;
19396;SDS011;9834;48.076;11.878;2022-11-14T12:56:23;4.27;;;3.20;;
19396;SDS011;9834;48.076;11.878;2022-11-14T12:59:17;4.40;;;3.10;;
19396;SDS011;9834;48.076;11.878;2022-11-14T13:05:18;3.47;;;2.40;;
19396;SDS011;9834;48.076;11.878;2022-11-14T13:07:55;2.90;;;2.67;;
19396;SDS011;9834;48.076;11.878;2022-11-14T13:10:36;2.53;;;2.33;;
19396;SDS011;9834;48.076;11.878;2022-11-14T13:13:04;4.50;;;3.40;;
19396;SDS011;9834;48.076;11.878;2022-11-14T13:15:50;2.83;;;2.50;;
19396;SDS011;9834;48.076;11.878;2022-11-14T13:18:48;3.33;;;3.03;;
19396;SDS011;9834;48.076;11.878;2022-11-14T13:21:34;2.77;;;2.57;;
19396;SDS011;9834;48.076;11.878;2022-11-14T13:24:15;2.93;;;2.10;;
19396;SDS011;9834;48.076;11.878;2022-11-14T13:26:46;2.97;;;2.67;;
19396;SDS011;9834;48.076;11.878;2022-11-14T13:35:41;2.27;;;2.07;;
19396;SDS011;9834;48.076;11.878;2022-11-14T13:41:41;3.63;;;1.90;;
19396;SDS011;9834;48.076;11.878;2022-11-14T13:44:39;4.77;;;2.03;;
19396;SDS011;9834;48.076;11.878;2022-11-14T13:47:32;2.60;;;2.40;;
19396;SDS011;9834;48.076;11.878;2022-11-14T13:50:24;3.07;;;1.93;;
19396;SDS011;9834;48.076;11.878;2022-11-14T13:52:54;3.23;;;2.33;;
19396;SDS011;9834;48.076;11.878;2022-11-14T13:55:22;2.30;;;2.07;;
19396;SDS011;9834;48.076;11.878;2022-11-14T13:58:05;2.27;;;2.07;;
19396;SDS011;9834;48.076;11.878;2022-11-14T14:00:49;4.70;;;2.30;;
19396;SDS011;9834;48.076;11.878;2022-11-14T14:06:24;2.70;;;2.27;;
19396;SDS011;9834;48.076;11.878;2022-11-14T14:09:08;2.83;;;2.60;;
19396;SDS011;9834;48.076;11.878;2022-11-14T14:11:46;4.43;;;2.40;;
19396;SDS011;9834;48.076;11.878;2022-11-14T14:14:31;2.30;;;2.10;;
19396;SDS011;9834;48.076;11.878;2022-11-14T14:17:12;3.50;;;3.10;;
19396;SDS011;9834;48.076;11.878;2022-11-14T14:19:47;3.67;;;2.67;;
19396;SDS011;9834;48.076;11.878;2022-11-14T14:22:26;4.03;;;3.07;;
19396;SDS011;9834;48.076;11.878;2022-11-14T14:25:03;3.47;;;3.17;;
19396;SDS011;9834;48.076;11.878;2022-11-14T14:27:44;4.93;;;3.90;;
19396;SDS011;9834;48.076;11.878;2022-11-14T14:30:22;5.20;;;4.23;;
19396;SDS011;9834;48.076;11.878;2022-11-14T14:33:01;5.13;;;3.63;;
19396;SDS011;9834;48.076;11.878;2022-11-14T14:35:39;3.17;;;2.93;;
19396;SDS011;9834;48.076;11.878;2022-11-14T14:38:25;3.57;;;2.97;;
19396;SDS011;9834;48.076;11.878;2022-11-14T14:40:53;3.83;;;3.27;;
19396;SDS011;9834;48.076;11.878;2022-11-14T14:43:22;5.37;;;3.37;;
19396;SDS011;9834;48.076;11.878;2022-11-14T14:45:53;3.50;;;3.20;;
19396;SDS011;9834;48.076;11.878;2022-11-14T14:48:21;3.87;;;2.60;;
19396;SDS011;9834;48.076;11.878;2022-11-14T14:50:51;2.77;;;2.57;;
19396;SDS011;9834;48.076;11.878;2022-11-14T14:53:19;3.17;;;2.90;;
19396;SDS011;9834;48.076;11.878;2022-11-14T14:55:51;4.83;;;3.10;;
19396;SDS011;9834;48.076;11.878;2022-11-14T14:58:23;2.93;;;2.70;;
19396;SDS011;9834;48.076;11.878;2022-11-14T15:00:54;5.27;;;2.77;;
19396;SDS011;9834;48.076;11.878;2022-11-14T15:03:23;3.57;;;3.27;;
19396;SDS011;9834;48.076;11.878;2022-11-14T15:05:56;3.33;;;2.40;;
19396;SDS011;9834;48.076;11.878;2022-11-14T15:08:24;4.27;;;3.33;;
19396;SDS011;9834;48.076;11.878;2022-11-14T15:10:53;6.23;;;2.90;;
19396;SDS011;9834;48.076;11.878;2022-11-14T15:13:24;4.10;;;3.17;;
19396;SDS011;9834;48.076;11.878;2022-11-14T15:15:54;4.83;;;3.13;;
19396;SDS011;9834;48.076;11.878;2022-11-14T15:18:23;8.47;;;3.67;;
19396;SDS011;9834;48.076;11.878;2022-11-14T15:21:08;6.13;;;3.43;;
19396;SDS011;9834;48.076;11.878;2022-11-14T15:23:38;3.37;;;3.07;;
19396;SDS011;9834;48.076;11.878;2022-11-14T15:26:10;6.40;;;3.30;;
19396;SDS011;9834;48.076;11.878;2022-11-14T15:28:39;4.70;;;3.60;;
19396;SDS011;9834;48.076;11.878;2022-11-14T15:31:14;4.37;;;3.47;;
19396;SDS011;9834;48.076;11.878;2022-11-14T15:33:42;3.77;;;3.33;;
19396;SDS011;9834;48.076;11.878;2022-11-14T15:36:10;5.00;;;3.53;;
19396;SDS011;9834;48.076;11.878;2022-11-14T15:38:38;3.57;;;3.03;;
19396;SDS011;9834;48.076;11.878;2022-11-14T15:41:09;4.83;;;4.00;;
19396;SDS011;9834;48.076;11.878;2022-11-14T15:43:47;6.13;;;4.97;;